createdAt,value
2023-06-21T00:01:13.476Z,3.47
2023-06-21T00:03:15.332Z,2.78
2023-06-21T00:05:17.745Z,3.47
2023-06-21T00:07:24.592Z,3.10
2023-06-21T00:09:26.096Z,3.45
2023-06-21T00:11:27.639Z,2.85
2023-06-21T00:13:29.151Z,3.17
2023-06-21T00:15:30.715Z,3.00
2023-06-21T00:17:32.314Z,3.17
2023-06-21T00:19:33.841Z,2.80
2023-06-21T00:21:35.370Z,2.63
2023-06-21T00:23:36.901Z,2.97
2023-06-21T00:25:39.751Z,2.95
2023-06-21T00:27:43.445Z,2.72
2023-06-21T00:29:45.433Z,3.03
2023-06-21T00:31:46.957Z,2.42
2023-06-21T00:33:48.487Z,2.53
2023-06-21T00:35:49.979Z,2.30
2023-06-21T00:37:51.577Z,2.78
2023-06-21T00:39:53.451Z,3.15
2023-06-21T00:41:55.051Z,2.42
2023-06-21T00:43:56.733Z,3.13
2023-06-21T00:45:58.613Z,3.00
2023-06-21T00:48:00.201Z,3.45
2023-06-21T00:50:01.741Z,2.83
2023-06-21T00:52:06.702Z,3.28
2023-06-21T00:54:09.284Z,3.33
2023-06-21T00:56:11.044Z,3.05
2023-06-21T00:58:13.587Z,3.13
2023-06-21T01:00:18.664Z,2.90
2023-06-21T01:02:20.253Z,3.10
2023-06-21T01:04:22.935Z,3.03
2023-06-21T01:06:36.389Z,3.47
2023-06-21T01:09:01.457Z,3.30
2023-06-21T01:11:20.389Z,3.50
2023-06-21T01:13:34.795Z,3.85
2023-06-21T01:15:46.152Z,3.80
2023-06-21T01:17:52.703Z,3.40
2023-06-21T01:19:56.701Z,3.80
2023-06-21T01:22:05.493Z,3.90
2023-06-21T01:24:39.267Z,3.90
2023-06-21T01:26:48.443Z,4.68
2023-06-21T01:29:08.208Z,4.68
2023-06-21T01:31:16.839Z,5.30
2023-06-21T01:33:19.993Z,4.75
2023-06-21T01:35:22.635Z,5.10
2023-06-21T01:37:25.085Z,5.57
2023-06-21T01:39:30.419Z,6.05
2023-06-21T01:41:31.988Z,6.57
2023-06-21T01:43:34.810Z,6.72
2023-06-21T01:45:36.384Z,7.20
2023-06-21T01:47:40.121Z,7.68
2023-06-21T01:49:42.551Z,7.78
2023-06-21T01:51:45.904Z,7.43
2023-06-21T01:53:48.059Z,7.55
2023-06-21T01:55:51.772Z,7.63
2023-06-21T01:57:53.850Z,9.23
2023-06-21T01:59:55.648Z,8.82
2023-06-21T02:02:01.742Z,7.97
2023-06-21T02:04:06.568Z,8.20
2023-06-21T02:06:09.933Z,9.30
2023-06-21T02:08:17.184Z,8.55
2023-06-21T02:10:20.208Z,9.65
2023-06-21T02:12:21.997Z,9.57
2023-06-21T02:14:24.090Z,10.10
2023-06-21T02:16:30.406Z,10.15
2023-06-21T02:18:31.988Z,10.07
2023-06-21T02:20:34.046Z,11.27
2023-06-21T02:22:35.569Z,12.10
2023-06-21T02:24:37.331Z,11.98
2023-06-21T02:26:38.909Z,12.68
2023-06-21T02:28:40.659Z,12.68
2023-06-21T02:30:42.155Z,13.07
2023-06-21T02:32:43.693Z,14.73
2023-06-21T02:34:45.233Z,14.38
2023-06-21T02:36:54.557Z,14.60
2023-06-21T02:38:56.830Z,15.23
2023-06-21T02:40:58.768Z,15.60
2023-06-21T02:43:00.436Z,15.88
2023-06-21T02:45:02.022Z,17.33
2023-06-21T02:47:03.758Z,17.75
2023-06-21T02:49:05.286Z,17.70
2023-06-21T02:51:06.800Z,17.70
2023-06-21T02:53:08.337Z,18.15
2023-06-21T02:55:10.125Z,18.52
2023-06-21T02:57:11.703Z,19.15
2023-06-21T02:59:13.492Z,19.60
2023-06-21T03:01:16.681Z,20.02
2023-06-21T03:03:18.362Z,20.38
2023-06-21T03:05:20.158Z,20.38
2023-06-21T03:07:24.391Z,19.73
2023-06-21T03:09:25.892Z,21.35
2023-06-21T03:11:27.417Z,21.58
2023-06-21T03:13:29.170Z,21.15
2023-06-21T03:15:30.686Z,21.23
2023-06-21T03:17:32.649Z,21.70
2023-06-21T03:19:34.186Z,22.45
2023-06-21T03:21:35.780Z,22.63
2023-06-21T03:23:37.388Z,22.00
2023-06-21T03:25:38.924Z,22.85
2023-06-21T03:27:41.080Z,22.60
2023-06-21T03:29:42.600Z,22.25
2023-06-21T03:31:44.218Z,21.80
2023-06-21T03:33:45.850Z,21.10
2023-06-21T03:35:47.938Z,20.02
2023-06-21T03:37:49.549Z,21.60
2023-06-21T03:39:51.051Z,20.65
2023-06-21T03:41:52.910Z,19.88
2023-06-21T03:43:54.608Z,20.52
2023-06-21T03:45:56.269Z,19.30
2023-06-21T03:47:57.918Z,19.42
2023-06-21T03:49:59.460Z,19.45
2023-06-21T03:52:01.006Z,19.10
2023-06-21T03:54:02.526Z,19.35
2023-06-21T03:56:05.228Z,18.50
2023-06-21T03:58:06.760Z,18.48
2023-06-21T04:00:12.664Z,18.10
2023-06-21T04:02:14.254Z,18.45
2023-06-21T04:04:16.005Z,18.42
2023-06-21T04:06:17.573Z,16.83
2023-06-21T04:08:19.120Z,18.45
2023-06-21T04:10:20.767Z,17.02
2023-06-21T04:12:22.453Z,17.35
2023-06-21T04:14:24.060Z,17.45
2023-06-21T04:16:27.360Z,17.13
2023-06-21T04:18:28.901Z,17.23
2023-06-21T04:20:31.759Z,18.05
2023-06-21T04:22:33.431Z,17.77
2023-06-21T04:24:35.028Z,16.48
2023-06-21T04:26:36.564Z,16.70
2023-06-21T04:28:41.294Z,16.83
2023-06-21T04:30:43.120Z,16.52
2023-06-21T04:32:48.132Z,15.93
2023-06-21T04:34:50.332Z,16.60
2023-06-21T04:36:51.851Z,16.20
2023-06-21T04:38:53.351Z,15.35
2023-06-21T04:40:54.960Z,16.52
2023-06-21T04:42:56.814Z,15.80
2023-06-21T04:44:59.396Z,16.10
2023-06-21T04:47:01.753Z,16.05
2023-06-21T04:49:05.251Z,16.48
2023-06-21T04:51:06.873Z,17.02
2023-06-21T04:53:08.356Z,17.83
2023-06-21T04:55:10.605Z,18.33
2023-06-21T04:57:13.759Z,19.17
2023-06-21T04:59:15.339Z,21.63
2023-06-21T05:01:16.830Z,22.48
2023-06-21T05:03:18.690Z,23.08
2023-06-21T05:05:20.388Z,22.23
2023-06-21T05:07:21.909Z,24.45
2023-06-21T05:09:23.421Z,24.92
2023-06-21T05:11:25.151Z,27.10
2023-06-21T05:13:26.641Z,28.27
2023-06-21T05:15:28.358Z,29.20
2023-06-21T05:17:29.898Z,29.08
2023-06-21T05:19:31.770Z,29.05
2023-06-21T05:21:33.269Z,28.08
2023-06-21T05:23:34.939Z,28.33
2023-06-21T05:25:36.711Z,27.98
2023-06-21T05:27:38.716Z,28.67
2023-06-21T05:29:40.280Z,29.08
2023-06-21T05:31:43.759Z,29.23
2023-06-21T05:33:45.339Z,28.40
2023-06-21T05:35:47.168Z,29.38
2023-06-21T05:37:48.809Z,29.55
2023-06-21T05:39:50.671Z,28.52
2023-06-21T05:41:52.242Z,28.35
2023-06-21T05:43:53.765Z,29.92
2023-06-21T05:45:55.333Z,29.30
2023-06-21T05:48:01.747Z,30.67
2023-06-21T05:50:04.192Z,28.15
2023-06-21T05:52:05.896Z,29.85
2023-06-21T05:54:07.386Z,29.58
2023-06-21T05:56:08.957Z,29.20
2023-06-21T05:58:10.474Z,28.90
2023-06-21T06:00:13.010Z,29.42
2023-06-21T06:02:14.651Z,29.15
2023-06-21T06:04:16.322Z,31.25
2023-06-21T06:06:19.069Z,31.30
2023-06-21T06:08:20.650Z,29.73
2023-06-21T06:10:22.289Z,29.98
2023-06-21T06:12:28.391Z,29.98
2023-06-21T06:14:29.932Z,29.80
2023-06-21T06:16:31.620Z,29.92
2023-06-21T06:18:33.338Z,30.83
2023-06-21T06:20:34.987Z,31.58
2023-06-21T06:22:36.570Z,32.70
2023-06-21T06:24:38.197Z,31.40
2023-06-21T06:26:39.693Z,31.77
2023-06-21T06:28:41.194Z,29.70
2023-06-21T06:30:42.771Z,29.95
2023-06-21T06:32:44.419Z,28.35
2023-06-21T06:34:46.003Z,27.38
2023-06-21T06:36:56.120Z,27.95
2023-06-21T06:39:04.933Z,27.50
2023-06-21T06:41:06.763Z,25.92
2023-06-21T06:43:08.258Z,25.23
2023-06-21T06:45:10.113Z,24.00
2023-06-21T06:47:12.429Z,24.33
2023-06-21T06:49:13.933Z,24.65
2023-06-21T06:51:15.540Z,24.35
2023-06-21T06:53:17.093Z,25.60
2023-06-21T06:55:18.677Z,24.55
2023-06-21T06:57:33.923Z,25.33
2023-06-21T06:59:38.530Z,23.42
2023-06-21T07:01:40.056Z,23.58
2023-06-21T07:03:41.769Z,22.80
2023-06-21T07:05:52.199Z,21.52
2023-06-21T07:07:54.668Z,19.95
2023-06-21T07:09:56.180Z,20.30
2023-06-21T07:12:00.554Z,19.70
2023-06-21T07:14:02.413Z,19.02
2023-06-21T07:16:04.119Z,19.75
2023-06-21T07:18:05.883Z,20.45
2023-06-21T07:20:09.525Z,19.52
2023-06-21T07:22:11.278Z,19.05
2023-06-21T07:24:13.342Z,18.48
2023-06-21T07:26:14.912Z,18.88
2023-06-21T07:28:16.408Z,17.75
2023-06-21T07:30:19.461Z,17.23
2023-06-21T07:32:20.989Z,16.92
2023-06-21T07:34:22.652Z,17.63
2023-06-21T07:36:24.310Z,16.45
2023-06-21T07:38:25.933Z,16.35
2023-06-21T07:40:27.760Z,15.40
2023-06-21T07:42:29.512Z,15.77
2023-06-21T07:44:31.478Z,15.23
2023-06-21T07:46:33.042Z,13.70
2023-06-21T07:48:35.424Z,14.25
2023-06-21T07:50:37.030Z,15.27
2023-06-21T07:52:38.545Z,12.82
2023-06-21T07:54:40.077Z,13.80
2023-06-21T07:56:41.608Z,13.23
2023-06-21T07:58:43.766Z,11.75
2023-06-21T08:00:45.340Z,12.77
2023-06-21T08:02:46.998Z,12.18
2023-06-21T08:04:48.801Z,12.35
2023-06-21T08:06:50.310Z,12.57
2023-06-21T08:08:51.798Z,12.63
2023-06-21T08:10:53.778Z,12.63
2023-06-21T08:12:55.311Z,11.63
2023-06-21T08:14:56.850Z,12.82
2023-06-21T08:16:58.356Z,13.00
2023-06-21T08:19:01.059Z,12.73
2023-06-21T08:21:02.672Z,13.63
2023-06-21T08:23:04.340Z,13.48
2023-06-21T08:25:06.090Z,14.05
2023-06-21T08:27:08.029Z,12.82
2023-06-21T08:29:09.518Z,12.95
2023-06-21T08:31:11.288Z,12.70
2023-06-21T08:33:14.137Z,13.55
2023-06-21T08:35:16.147Z,12.60
2023-06-21T08:37:23.108Z,12.60
2023-06-21T08:39:24.625Z,11.55
2023-06-21T08:41:27.432Z,12.48
2023-06-21T08:43:29.505Z,11.55
2023-06-21T08:45:31.230Z,12.00
2023-06-21T08:47:34.961Z,11.30
2023-06-21T08:49:42.315Z,11.85
2023-06-21T08:51:45.684Z,11.23
2023-06-21T08:53:51.895Z,11.20
2023-06-21T08:55:54.048Z,10.52
2023-06-21T08:57:59.987Z,11.40
2023-06-21T09:00:03.565Z,11.70
2023-06-21T09:02:35.861Z,11.60
2023-06-21T09:04:46.339Z,9.23
2023-06-21T09:06:48.942Z,9.88
2023-06-21T09:08:52.653Z,9.40
2023-06-21T09:10:54.378Z,10.32
2023-06-21T09:12:58.556Z,9.48
2023-06-21T09:15:00.285Z,10.52
2023-06-21T09:17:02.185Z,9.25
2023-06-21T09:19:03.881Z,9.02
2023-06-21T09:21:07.663Z,8.45
2023-06-21T09:23:10.369Z,7.80
2023-06-21T09:25:14.038Z,7.13
2023-06-21T09:27:16.405Z,8.32
2023-06-21T09:29:18.088Z,7.38
2023-06-21T09:31:20.000Z,6.22
2023-06-21T09:33:21.678Z,7.63
2023-06-21T09:35:23.360Z,7.15
2023-06-21T09:37:33.139Z,8.65
2023-06-21T09:39:34.738Z,7.95
2023-06-21T09:41:37.079Z,7.72
2023-06-21T09:43:46.028Z,7.30
2023-06-21T09:46:08.370Z,6.70
2023-06-21T09:48:15.862Z,8.82
2023-06-21T09:50:17.463Z,9.57
2023-06-21T09:52:23.242Z,7.57
2023-06-21T09:54:24.799Z,7.85
2023-06-21T09:56:26.388Z,7.55
2023-06-21T09:58:29.358Z,9.10
2023-06-21T10:00:37.473Z,8.73
2023-06-21T10:02:42.949Z,8.68
2023-06-21T10:04:45.845Z,8.15
2023-06-21T10:06:56.869Z,9.80
2023-06-21T10:08:58.469Z,7.85
2023-06-21T10:11:02.360Z,8.45
2023-06-21T10:13:04.182Z,8.52
2023-06-21T10:15:07.109Z,8.70
2023-06-21T10:17:09.517Z,7.00
2023-06-21T10:19:11.440Z,7.00
2023-06-21T10:21:14.175Z,6.95
2023-06-21T10:23:16.760Z,7.55
2023-06-21T10:25:21.392Z,8.20
2023-06-21T10:27:23.405Z,7.75
2023-06-21T10:29:25.193Z,7.10
2023-06-21T10:31:30.662Z,7.43
2023-06-21T10:33:35.085Z,7.10
2023-06-21T10:35:43.779Z,6.15
2023-06-21T10:37:50.664Z,6.30
2023-06-21T10:40:09.414Z,6.70
2023-06-21T10:42:12.749Z,5.95
2023-06-21T10:44:19.963Z,5.97
2023-06-21T10:48:26.378Z,6.07
2023-06-21T10:50:28.928Z,5.47
2023-06-21T10:52:31.750Z,5.82
2023-06-21T10:54:34.042Z,5.97
2023-06-21T10:56:36.984Z,6.80
2023-06-21T10:58:39.072Z,7.25
2023-06-21T11:00:44.068Z,5.75
2023-06-21T11:02:46.081Z,6.35
2023-06-21T11:05:12.762Z,5.40
2023-06-21T11:07:14.464Z,6.47
2023-06-21T11:09:17.939Z,6.07
2023-06-21T11:11:38.041Z,5.18
2023-06-21T11:13:40.874Z,5.57
2023-06-21T11:15:47.220Z,5.47
2023-06-21T11:17:58.679Z,5.20
2023-06-21T11:20:19.387Z,5.15
2023-06-21T11:22:27.791Z,5.18
2023-06-21T11:24:29.467Z,5.30
2023-06-21T11:26:54.572Z,4.70
2023-06-21T11:28:56.104Z,5.05
2023-06-21T11:31:11.257Z,5.10
2023-06-21T11:33:20.582Z,5.45
2023-06-21T11:35:37.611Z,4.40
2023-06-21T11:37:48.932Z,4.90
2023-06-21T11:39:58.352Z,4.80
2023-06-21T11:42:01.195Z,4.85
2023-06-21T11:44:02.829Z,4.40
2023-06-21T11:46:04.745Z,4.65
2023-06-21T11:48:10.048Z,4.20
2023-06-21T11:50:15.075Z,4.15
2023-06-21T11:52:18.508Z,3.72
2023-06-21T11:54:33.657Z,4.10
2023-06-21T11:56:35.699Z,3.70
2023-06-21T11:58:37.540Z,3.65
2023-06-21T12:00:39.152Z,3.90
2023-06-21T12:02:40.815Z,3.72
2023-06-21T12:04:43.393Z,3.92
2023-06-21T12:06:45.014Z,3.80
2023-06-21T12:08:46.718Z,3.72
2023-06-21T12:10:49.398Z,3.50
2023-06-21T12:12:50.996Z,3.50
2023-06-21T12:14:52.496Z,3.90
2023-06-21T12:16:54.034Z,3.60
2023-06-21T12:18:56.395Z,4.10
2023-06-21T12:21:01.964Z,4.43
2023-06-21T12:23:03.543Z,4.05
2023-06-21T12:25:05.661Z,3.70
2023-06-21T12:27:07.269Z,3.72
2023-06-21T12:29:10.178Z,4.43
2023-06-21T12:31:17.471Z,3.65
2023-06-21T12:33:19.373Z,3.83
2023-06-21T12:35:20.922Z,3.60
2023-06-21T12:37:22.705Z,3.28
2023-06-21T12:39:24.480Z,3.45
2023-06-21T12:41:28.421Z,2.95
2023-06-21T12:43:44.081Z,3.00
2023-06-21T12:45:48.368Z,3.00
2023-06-21T12:47:50.649Z,3.17
2023-06-21T12:50:00.551Z,3.38
2023-06-21T12:52:03.361Z,3.30
2023-06-21T12:54:12.379Z,2.90
2023-06-21T12:56:14.294Z,2.60
2023-06-21T12:58:17.202Z,2.78
2023-06-21T13:00:19.066Z,2.70
2023-06-21T13:02:27.504Z,2.72
2023-06-21T13:04:29.624Z,2.50
2023-06-21T13:06:31.194Z,2.30
2023-06-21T13:08:35.160Z,2.70
2023-06-21T13:10:37.610Z,2.80
2023-06-21T13:12:39.344Z,2.25
2023-06-21T13:14:40.878Z,2.88
2023-06-21T13:16:42.410Z,2.78
2023-06-21T13:18:49.036Z,2.72
2023-06-21T13:20:52.664Z,2.50
2023-06-21T13:22:54.812Z,2.88
2023-06-21T13:24:56.325Z,3.03
2023-06-21T13:26:59.016Z,3.17
2023-06-21T13:29:00.623Z,2.53
2023-06-21T13:31:02.625Z,2.67
2023-06-21T13:33:04.260Z,2.35
2023-06-21T13:35:07.229Z,2.55
2023-06-21T13:37:08.784Z,2.13
2023-06-21T13:39:10.297Z,2.00
2023-06-21T13:41:12.076Z,2.03
2023-06-21T13:43:13.620Z,2.35
2023-06-21T13:45:15.204Z,2.13
2023-06-21T13:47:16.825Z,2.20
2023-06-21T13:49:19.843Z,2.17
2023-06-21T13:51:22.610Z,2.20
2023-06-21T13:53:24.179Z,2.20
2023-06-21T13:55:25.843Z,2.20
2023-06-21T13:57:28.370Z,1.60
2023-06-21T13:59:29.910Z,2.08
2023-06-21T14:01:31.426Z,2.20
2023-06-21T14:03:32.997Z,2.70
2023-06-21T14:05:35.738Z,2.50
2023-06-21T14:07:38.465Z,2.75
2023-06-21T14:09:40.804Z,2.80
2023-06-21T14:11:42.373Z,2.53
2023-06-21T14:13:44.520Z,2.63
2023-06-21T14:15:46.019Z,2.53
2023-06-21T14:17:47.620Z,2.50
2023-06-21T14:19:49.400Z,2.40
2023-06-21T14:21:51.039Z,2.50
2023-06-21T14:23:52.680Z,2.58
2023-06-21T14:25:54.304Z,2.35
2023-06-21T14:27:55.846Z,1.80
2023-06-21T14:30:02.181Z,1.90
2023-06-21T14:32:04.041Z,1.70
2023-06-21T14:34:05.782Z,1.80
2023-06-21T14:36:07.359Z,2.25
2023-06-21T14:38:09.201Z,2.33
2023-06-21T14:40:10.926Z,1.73
2023-06-21T14:42:12.829Z,1.70
2023-06-21T14:44:14.419Z,1.90
2023-06-21T14:46:16.025Z,1.80
2023-06-21T14:48:17.780Z,1.67
2023-06-21T14:50:20.214Z,1.90
2023-06-21T14:52:22.153Z,2.13
2023-06-21T14:54:23.828Z,2.00
2023-06-21T14:56:25.468Z,2.20
2023-06-21T14:58:26.975Z,2.20
2023-06-21T15:00:28.842Z,1.55
2023-06-21T15:02:31.022Z,1.73
2023-06-21T15:04:32.704Z,2.28
2023-06-21T15:06:34.425Z,1.80
2023-06-21T15:08:35.990Z,1.98
2023-06-21T15:10:37.513Z,2.03
2023-06-21T15:12:48.554Z,1.73
2023-06-21T15:14:58.066Z,2.20
2023-06-21T15:16:59.621Z,1.90
2023-06-21T15:19:01.686Z,1.90
2023-06-21T15:21:03.296Z,1.83
2023-06-21T15:23:05.141Z,1.65
2023-06-21T15:25:06.958Z,2.10
2023-06-21T15:27:08.477Z,2.10
2023-06-21T15:29:10.467Z,2.10
2023-06-21T15:31:12.150Z,1.90
2023-06-21T15:33:13.761Z,2.03
2023-06-21T15:35:15.368Z,1.85
2023-06-21T15:37:17.923Z,1.73
2023-06-21T15:39:19.479Z,2.08
2023-06-21T15:41:20.994Z,2.00
2023-06-21T15:43:22.506Z,1.70
2023-06-21T15:45:24.016Z,1.98
2023-06-21T15:47:25.548Z,1.52
2023-06-21T15:49:27.176Z,2.00
2023-06-21T15:51:29.191Z,1.85
2023-06-21T15:53:30.725Z,1.52
2023-06-21T15:55:32.399Z,1.83
2023-06-21T15:57:34.986Z,1.60
2023-06-21T15:59:37.605Z,2.00
2023-06-21T16:01:39.297Z,1.83
2023-06-21T16:03:43.467Z,1.48
2023-06-21T16:05:45.191Z,1.50
2023-06-21T16:07:46.679Z,1.60
2023-06-21T16:09:48.178Z,1.40
2023-06-21T16:11:49.771Z,1.40
2023-06-21T16:13:51.347Z,1.90
2023-06-21T16:15:52.874Z,1.70
2023-06-21T16:17:54.438Z,1.50
2023-06-21T16:19:56.025Z,1.80
2023-06-21T16:21:58.148Z,1.90
2023-06-21T16:24:00.505Z,1.60
2023-06-21T16:26:02.194Z,1.80
2023-06-21T16:28:03.781Z,1.80
2023-06-21T16:30:06.273Z,1.90
2023-06-21T16:32:10.660Z,1.50
2023-06-21T16:34:12.352Z,1.70
2023-06-21T16:36:13.969Z,1.50
2023-06-21T16:38:15.582Z,1.63
2023-06-21T16:40:17.727Z,1.67
2023-06-21T16:42:19.220Z,1.35
2023-06-21T16:44:20.764Z,1.60
2023-06-21T16:46:22.464Z,1.50
2023-06-21T16:48:24.226Z,1.40
2023-06-21T16:50:26.075Z,1.70
2023-06-21T16:52:27.586Z,1.40
2023-06-21T16:54:29.162Z,1.70
2023-06-21T16:56:31.165Z,1.58
2023-06-21T16:58:33.224Z,1.80
2023-06-21T17:00:36.011Z,1.80
2023-06-21T17:02:37.711Z,1.30
2023-06-21T17:04:39.300Z,1.67
2023-06-21T17:06:40.836Z,1.70
2023-06-21T17:08:42.337Z,1.80
2023-06-21T17:10:44.117Z,1.70
2023-06-21T17:12:46.547Z,1.52
2023-06-21T17:14:48.165Z,1.63
2023-06-21T17:16:49.876Z,1.60
2023-06-21T17:18:52.882Z,2.03
2023-06-21T17:20:54.430Z,2.30
2023-06-21T17:22:56.005Z,1.85
2023-06-21T17:24:58.124Z,1.88
2023-06-21T17:26:59.687Z,2.10
2023-06-21T17:29:01.231Z,1.77
2023-06-21T17:31:02.818Z,1.38
2023-06-21T17:33:07.639Z,1.60
2023-06-21T17:35:14.982Z,1.63
2023-06-21T17:37:16.699Z,2.10
2023-06-21T17:39:18.426Z,1.80
2023-06-21T17:41:19.941Z,1.95
2023-06-21T17:43:21.527Z,1.95
2023-06-21T17:45:23.311Z,1.75
2023-06-21T17:47:24.978Z,2.25
2023-06-21T17:49:26.609Z,2.30
2023-06-21T17:51:28.423Z,2.22
2023-06-21T17:53:29.981Z,1.90
2023-06-21T17:55:31.943Z,2.20
2023-06-21T17:57:33.545Z,2.30
2023-06-21T17:59:35.310Z,2.20
2023-06-21T18:01:36.904Z,1.92
2023-06-21T18:03:38.702Z,2.30
2023-06-21T18:05:40.836Z,1.92
2023-06-21T18:07:42.676Z,2.20
2023-06-21T18:09:44.222Z,2.05
2023-06-21T18:11:45.873Z,1.95
2023-06-21T18:13:47.762Z,2.00
2023-06-21T18:15:49.259Z,2.03
2023-06-21T18:17:50.888Z,2.13
2023-06-21T18:19:52.504Z,1.90
2023-06-21T18:22:03.759Z,2.33
2023-06-21T18:24:16.111Z,2.00
2023-06-21T18:26:17.763Z,2.47
2023-06-21T18:28:19.317Z,2.10
2023-06-21T18:30:20.911Z,2.25
2023-06-21T18:32:22.426Z,2.42
2023-06-21T18:34:24.131Z,1.83
2023-06-21T18:36:25.677Z,2.35
2023-06-21T18:38:29.025Z,2.00
2023-06-21T18:40:30.944Z,2.10
2023-06-21T18:42:32.861Z,2.00
2023-06-21T18:44:34.360Z,2.35
2023-06-21T18:46:35.873Z,2.88
2023-06-21T18:48:37.412Z,2.35
2023-06-21T18:50:38.983Z,2.50
2023-06-21T18:52:40.521Z,2.72
2023-06-21T18:54:42.244Z,2.28
2023-06-21T18:56:45.896Z,2.08
2023-06-21T18:58:55.924Z,2.10
2023-06-21T19:00:57.475Z,2.60
2023-06-21T19:02:59.136Z,2.13
2023-06-21T19:05:00.978Z,2.22
2023-06-21T19:07:02.554Z,2.15
2023-06-21T19:09:06.857Z,1.77
2023-06-21T19:11:08.418Z,2.08
2023-06-21T19:13:11.773Z,2.05
2023-06-21T19:15:13.455Z,2.15
2023-06-21T19:17:14.991Z,2.28
2023-06-21T19:19:16.507Z,2.33
2023-06-21T19:21:18.204Z,2.00
2023-06-21T19:23:19.787Z,2.13
2023-06-21T19:25:21.392Z,2.03
2023-06-21T19:27:23.144Z,2.15
2023-06-21T19:29:24.710Z,1.80
2023-06-21T19:31:26.554Z,1.83
2023-06-21T19:33:28.285Z,2.17
2023-06-21T19:35:32.944Z,2.10
2023-06-21T19:37:34.478Z,2.22
2023-06-21T19:39:36.761Z,2.05
2023-06-21T19:41:38.404Z,2.25
2023-06-21T19:43:39.969Z,2.03
2023-06-21T19:45:41.732Z,2.20
2023-06-21T19:47:43.273Z,2.30
2023-06-21T19:49:46.369Z,1.95
2023-06-21T19:51:47.922Z,2.30
2023-06-21T19:53:49.456Z,2.10
2023-06-21T19:55:50.954Z,2.05
2023-06-21T19:57:52.540Z,2.13
2023-06-21T19:59:54.051Z,2.75
2023-06-21T20:01:55.664Z,2.10
2023-06-21T20:03:57.236Z,2.10
2023-06-21T20:05:58.768Z,2.17
2023-06-21T20:08:00.564Z,2.20
2023-06-21T20:10:02.113Z,2.40
2023-06-21T20:12:03.820Z,2.20
2023-06-21T20:14:05.587Z,1.90
2023-06-21T20:16:10.504Z,2.13
2023-06-21T20:18:12.103Z,2.00
2023-06-21T20:20:13.681Z,2.08
2023-06-21T20:22:16.716Z,2.15
2023-06-21T20:24:18.248Z,2.08
2023-06-21T20:26:19.891Z,2.13
2023-06-21T20:28:21.607Z,2.25
2023-06-21T20:30:23.266Z,2.20
2023-06-21T20:32:24.855Z,2.55
2023-06-21T20:34:26.463Z,2.20
2023-06-21T20:36:28.073Z,2.22
2023-06-21T20:38:32.006Z,2.47
2023-06-21T20:40:33.785Z,2.22
2023-06-21T20:42:35.417Z,2.10
2023-06-21T20:44:39.053Z,2.55
2023-06-21T20:46:45.909Z,2.42
2023-06-21T20:48:54.170Z,2.50
2023-06-21T20:50:55.810Z,2.63
2023-06-21T20:52:57.366Z,2.35
2023-06-21T20:54:58.855Z,2.55
2023-06-21T20:57:00.430Z,2.40
2023-06-21T20:59:01.935Z,2.65
2023-06-21T21:01:03.674Z,2.25
2023-06-21T21:03:05.765Z,2.10
2023-06-21T21:05:07.675Z,2.50
2023-06-21T21:07:09.179Z,2.70
2023-06-21T21:09:10.669Z,3.00
2023-06-21T21:11:13.916Z,2.80
2023-06-21T21:13:15.478Z,2.40
2023-06-21T21:15:17.046Z,2.33
2023-06-21T21:17:18.550Z,2.60
2023-06-21T21:19:20.061Z,2.08
2023-06-21T21:21:22.098Z,2.97
2023-06-21T21:23:23.675Z,2.70
2023-06-21T21:25:26.233Z,2.60
2023-06-21T21:27:27.820Z,2.28
2023-06-21T21:29:29.382Z,2.22
2023-06-21T21:31:31.637Z,2.40
2023-06-21T21:33:33.170Z,2.13
2023-06-21T21:35:34.753Z,2.42
2023-06-21T21:37:36.300Z,2.85
2023-06-21T21:39:37.814Z,2.22
2023-06-21T21:41:39.429Z,2.70
2023-06-21T21:43:40.958Z,2.50
2023-06-21T21:45:42.537Z,2.40
2023-06-21T21:47:44.090Z,2.55
2023-06-21T21:49:45.735Z,2.55
2023-06-21T21:51:47.452Z,2.40
2023-06-21T21:53:48.952Z,2.42
2023-06-21T21:55:51.024Z,2.88
2023-06-21T21:57:53.106Z,2.85
2023-06-21T21:59:54.631Z,2.70
2023-06-21T22:01:56.175Z,2.58
2023-06-21T22:03:58.080Z,2.90
2023-06-21T22:05:59.750Z,3.25
2023-06-21T22:08:01.272Z,2.70
2023-06-21T22:10:03.026Z,2.80
2023-06-21T22:12:08.017Z,3.15
2023-06-21T22:14:10.869Z,2.72
2023-06-21T22:16:13.542Z,3.38
2023-06-21T22:18:15.112Z,3.00
2023-06-21T22:20:17.880Z,3.38
2023-06-21T22:22:20.092Z,3.53
2023-06-21T22:24:22.710Z,3.15
2023-06-21T22:26:24.209Z,3.22
2023-06-21T22:28:25.721Z,3.13
2023-06-21T22:30:27.811Z,2.70
2023-06-21T22:32:31.257Z,3.53
2023-06-21T22:34:32.876Z,3.05
2023-06-21T22:36:34.487Z,3.17
2023-06-21T22:38:38.797Z,2.90
2023-06-21T22:40:40.616Z,3.22
2023-06-21T22:42:42.121Z,2.75
2023-06-21T22:44:43.625Z,3.15
2023-06-21T22:46:45.121Z,3.00
2023-06-21T22:48:46.636Z,2.80
2023-06-21T22:50:48.874Z,2.80
2023-06-21T22:52:52.553Z,2.88
2023-06-21T22:54:54.072Z,3.28
2023-06-21T22:56:55.537Z,3.00
2023-06-21T22:58:57.093Z,2.70
2023-06-21T23:00:58.731Z,3.28
2023-06-21T23:03:04.562Z,3.28
2023-06-21T23:05:07.093Z,3.60
2023-06-21T23:07:09.761Z,3.50
2023-06-21T23:09:11.283Z,2.83
2023-06-21T23:11:13.839Z,3.10
2023-06-21T23:13:15.388Z,3.00
2023-06-21T23:15:20.240Z,3.10
2023-06-21T23:17:22.790Z,3.08
2023-06-21T23:19:24.339Z,2.92
2023-06-21T23:21:26.120Z,3.33
2023-06-21T23:23:30.182Z,3.17
2023-06-21T23:25:31.803Z,2.90
2023-06-21T23:27:38.345Z,3.30
2023-06-21T23:29:43.059Z,3.13
2023-06-21T23:31:44.656Z,3.42
2023-06-21T23:33:49.853Z,3.58
2023-06-21T23:35:51.393Z,3.65
2023-06-21T23:37:55.495Z,3.17
2023-06-21T23:39:57.965Z,3.30
2023-06-21T23:41:59.490Z,4.35
2023-06-21T23:44:02.350Z,5.20
2023-06-21T23:46:05.827Z,4.20
2023-06-21T23:48:07.639Z,3.70
2023-06-21T23:50:09.611Z,3.50
2023-06-21T23:52:11.473Z,3.78
2023-06-21T23:54:13.025Z,3.97
2023-06-21T23:56:14.746Z,3.70
2023-06-21T23:58:16.333Z,4.03
